createdAt,value
2022-07-30T00:01:02.680Z,6.32
2022-07-30T00:03:35.764Z,5.88
2022-07-30T00:06:06.651Z,5.90
2022-07-30T00:08:37.801Z,6.35
2022-07-30T00:11:07.487Z,6.07
2022-07-30T00:13:44.530Z,6.63
2022-07-30T00:16:12.936Z,6.13
2022-07-30T00:18:50.516Z,6.28
2022-07-30T00:21:35.879Z,8.23
2022-07-30T00:24:10.743Z,7.10
2022-07-30T00:26:40.591Z,9.52
2022-07-30T00:29:29.612Z,7.10
2022-07-30T00:32:00.445Z,6.63
2022-07-30T00:34:30.020Z,7.70
2022-07-30T00:37:01.024Z,6.85
2022-07-30T00:39:32.142Z,6.95
2022-07-30T00:42:05.882Z,6.70
2022-07-30T00:44:36.190Z,7.15
2022-07-30T00:47:10.530Z,6.30
2022-07-30T00:49:44.265Z,6.50
2022-07-30T00:52:12.376Z,6.63
2022-07-30T00:54:42.340Z,7.43
2022-07-30T00:57:11.428Z,6.38
2022-07-30T00:59:41.899Z,7.13
2022-07-30T01:02:10.903Z,7.22
2022-07-30T01:04:38.575Z,6.30
2022-07-30T01:07:09.311Z,6.45
2022-07-30T01:09:40.990Z,6.72
2022-07-30T01:12:25.540Z,6.57
2022-07-30T01:15:03.006Z,6.53
2022-07-30T01:17:31.860Z,6.43
2022-07-30T01:20:08.285Z,6.90
2022-07-30T01:23:01.080Z,7.05
2022-07-30T01:25:50.881Z,7.25
2022-07-30T01:28:23.137Z,7.00
2022-07-30T01:30:53.131Z,6.53
2022-07-30T01:33:22.684Z,6.22
2022-07-30T01:35:51.635Z,7.30
2022-07-30T01:38:22.058Z,6.78
2022-07-30T01:40:52.030Z,7.07
2022-07-30T01:43:20.849Z,6.75
2022-07-30T01:45:49.557Z,6.60
2022-07-30T01:48:18.900Z,6.80
2022-07-30T01:50:47.367Z,7.75
2022-07-30T01:53:18.815Z,7.40
2022-07-30T01:55:46.395Z,7.07
2022-07-30T01:58:14.860Z,7.53
2022-07-30T02:00:44.401Z,6.97
2022-07-30T02:03:12.291Z,7.95
2022-07-30T02:05:41.904Z,8.20
2022-07-30T02:08:17.145Z,7.28
2022-07-30T02:10:50.430Z,7.13
2022-07-30T02:13:26.526Z,7.53
2022-07-30T02:15:57.535Z,8.40
2022-07-30T02:18:39.865Z,7.47
2022-07-30T02:21:11.814Z,6.95
2022-07-30T02:23:43.511Z,8.05
2022-07-30T02:26:16.284Z,8.07
2022-07-30T02:28:45.022Z,8.05
2022-07-30T02:31:17.140Z,8.38
2022-07-30T02:33:48.823Z,8.27
2022-07-30T02:36:18.500Z,8.45
2022-07-30T02:38:47.531Z,7.68
2022-07-30T02:41:16.475Z,8.73
2022-07-30T02:43:44.089Z,7.80
2022-07-30T02:46:13.404Z,8.05
2022-07-30T02:48:41.508Z,8.43
2022-07-30T02:51:09.228Z,7.68
2022-07-30T02:53:38.094Z,7.88
2022-07-30T02:56:06.526Z,7.82
2022-07-30T02:58:37.992Z,7.85
2022-07-30T03:01:05.856Z,8.07
2022-07-30T03:03:33.606Z,8.10
2022-07-30T03:06:02.616Z,8.77
2022-07-30T03:08:31.191Z,7.65
2022-07-30T03:10:58.800Z,8.30
2022-07-30T03:13:26.599Z,8.65
2022-07-30T03:15:54.816Z,9.05
2022-07-30T03:18:23.240Z,7.78
2022-07-30T03:20:52.715Z,8.13
2022-07-30T03:23:20.791Z,8.65
2022-07-30T03:25:50.340Z,7.75
2022-07-30T03:28:23.386Z,8.70
2022-07-30T03:30:51.785Z,8.40
2022-07-30T03:33:20.225Z,8.50
2022-07-30T03:35:49.451Z,9.00
2022-07-30T03:38:17.872Z,8.85
2022-07-30T03:40:46.485Z,8.50
2022-07-30T03:43:18.550Z,8.63
2022-07-30T03:46:02.075Z,8.43
2022-07-30T03:48:30.083Z,8.40
2022-07-30T03:50:57.790Z,8.32
2022-07-30T03:53:25.605Z,7.60
2022-07-30T03:55:53.780Z,8.00
2022-07-30T03:58:21.300Z,8.00
2022-07-30T04:00:49.892Z,8.63
2022-07-30T04:03:26.915Z,7.90
2022-07-30T04:05:54.512Z,8.52
2022-07-30T04:08:21.999Z,9.23
2022-07-30T04:10:50.257Z,8.65
2022-07-30T04:13:18.115Z,8.88
2022-07-30T04:16:05.575Z,9.70
2022-07-30T04:18:51.445Z,10.00
2022-07-30T04:21:19.642Z,9.77
2022-07-30T04:24:04.692Z,10.30
2022-07-30T04:26:34.960Z,10.93
2022-07-30T04:29:03.235Z,11.85
2022-07-30T04:31:38.343Z,9.45
2022-07-30T04:34:09.478Z,10.35
2022-07-30T04:36:36.976Z,10.50
2022-07-30T04:39:04.760Z,10.45
2022-07-30T04:41:45.377Z,9.60
2022-07-30T04:44:18.164Z,9.48
2022-07-30T04:46:45.707Z,9.95
2022-07-30T04:49:13.852Z,9.88
2022-07-30T04:51:41.736Z,10.05
2022-07-30T04:54:15.783Z,8.18
2022-07-30T04:56:50.241Z,10.35
2022-07-30T04:59:22.281Z,10.07
2022-07-30T05:01:50.478Z,8.10
2022-07-30T05:04:19.223Z,8.90
2022-07-30T05:06:47.065Z,7.78
2022-07-30T05:09:16.364Z,8.70
2022-07-30T05:11:44.640Z,9.80
2022-07-30T05:14:12.056Z,8.38
2022-07-30T05:16:39.863Z,9.38
2022-07-30T05:19:07.794Z,7.68
2022-07-30T05:21:35.460Z,7.20
2022-07-30T05:24:02.935Z,8.13
2022-07-30T05:26:30.412Z,8.75
2022-07-30T05:28:57.947Z,7.63
2022-07-30T05:31:26.575Z,6.82
2022-07-30T05:34:00.153Z,9.40
2022-07-30T05:36:30.145Z,7.55
2022-07-30T05:38:57.621Z,6.75
2022-07-30T05:41:32.004Z,6.75
2022-07-30T05:44:01.007Z,6.82
2022-07-30T05:46:28.558Z,6.82
2022-07-30T05:48:56.093Z,6.95
2022-07-30T05:51:23.896Z,7.13
2022-07-30T05:53:51.923Z,6.38
2022-07-30T05:56:19.446Z,6.53
2022-07-30T05:58:46.869Z,7.22
2022-07-30T06:01:14.316Z,6.95
2022-07-30T06:03:42.233Z,7.10
2022-07-30T06:06:09.756Z,6.15
2022-07-30T06:08:37.682Z,6.25
2022-07-30T06:11:05.351Z,6.18
2022-07-30T06:13:32.836Z,7.18
2022-07-30T06:16:00.321Z,6.82
2022-07-30T06:18:27.801Z,6.70
2022-07-30T06:20:56.040Z,6.32
2022-07-30T06:23:23.966Z,6.25
2022-07-30T06:25:51.975Z,6.57
2022-07-30T06:31:07.695Z,5.90
2022-07-30T06:33:35.578Z,6.70
2022-07-30T06:36:03.059Z,6.63
2022-07-30T06:38:30.716Z,5.75
2022-07-30T06:41:02.936Z,6.85
2022-07-30T06:43:32.105Z,5.00
2022-07-30T06:45:59.747Z,5.28
2022-07-30T06:48:27.281Z,8.30
2022-07-30T06:50:54.813Z,7.28
2022-07-30T06:53:22.246Z,6.57
2022-07-30T06:55:51.182Z,6.00
2022-07-30T06:58:25.841Z,6.22
2022-07-30T07:00:53.454Z,5.88
2022-07-30T07:03:21.623Z,5.28
2022-07-30T07:05:49.105Z,5.53
2022-07-30T07:08:16.572Z,5.43
2022-07-30T07:10:44.011Z,4.93
2022-07-30T07:13:11.421Z,5.15
2022-07-30T07:15:38.976Z,4.65
2022-07-30T07:18:07.069Z,5.95
2022-07-30T07:20:35.190Z,4.10
2022-07-30T07:23:08.983Z,3.95
2022-07-30T07:25:37.082Z,5.00
2022-07-30T07:28:11.976Z,3.78
2022-07-30T07:30:42.093Z,4.32
2022-07-30T07:33:10.148Z,4.32
2022-07-30T07:35:45.526Z,4.22
2022-07-30T07:38:18.604Z,4.47
2022-07-30T07:40:46.543Z,3.45
2022-07-30T07:43:14.757Z,3.60
2022-07-30T07:45:43.126Z,4.00
2022-07-30T07:48:10.756Z,5.20
2022-07-30T07:50:38.618Z,4.15
2022-07-30T07:53:06.502Z,3.85
2022-07-30T07:55:33.944Z,4.20
2022-07-30T07:58:01.669Z,3.83
2022-07-30T08:00:29.422Z,3.80
2022-07-30T08:02:56.967Z,3.72
2022-07-30T08:05:25.069Z,4.00
2022-07-30T08:08:12.591Z,4.20
2022-07-30T08:10:40.071Z,3.80
2022-07-30T08:13:07.796Z,3.85
2022-07-30T08:15:55.217Z,3.58
2022-07-30T08:18:22.681Z,3.30
2022-07-30T08:20:50.806Z,3.80
2022-07-30T08:23:19.862Z,4.28
2022-07-30T08:25:47.296Z,4.13
2022-07-30T08:28:34.161Z,4.00
2022-07-30T08:31:02.757Z,4.40
2022-07-30T08:33:30.354Z,4.32
2022-07-30T08:35:59.080Z,4.82
2022-07-30T08:38:27.036Z,5.15
2022-07-30T08:40:57.596Z,4.72
2022-07-30T08:43:26.901Z,4.82
2022-07-30T08:45:55.201Z,4.75
2022-07-30T08:48:22.882Z,4.38
2022-07-30T08:50:51.155Z,4.72
2022-07-30T08:53:18.950Z,4.30
2022-07-30T08:55:46.800Z,4.05
2022-07-30T08:58:35.371Z,3.90
2022-07-30T09:01:03.277Z,3.85
2022-07-30T09:03:31.121Z,4.00
2022-07-30T09:05:58.606Z,3.55
2022-07-30T09:08:26.296Z,4.60
2022-07-30T09:10:53.766Z,3.70
2022-07-30T09:13:25.338Z,3.70
2022-07-30T09:15:52.789Z,3.60
2022-07-30T09:18:30.700Z,3.58
2022-07-30T09:20:59.585Z,3.22
2022-07-30T09:23:27.131Z,3.65
2022-07-30T09:25:57.463Z,3.70
2022-07-30T09:28:32.536Z,3.20
2022-07-30T09:31:00.252Z,5.53
2022-07-30T09:33:41.055Z,3.50
2022-07-30T09:36:10.161Z,3.03
2022-07-30T09:38:45.067Z,4.40
2022-07-30T09:41:29.338Z,3.30
2022-07-30T09:44:01.110Z,3.78
2022-07-30T09:46:47.851Z,4.63
2022-07-30T09:49:20.355Z,3.28
2022-07-30T09:51:55.639Z,3.70
2022-07-30T09:54:25.230Z,3.53
2022-07-30T09:57:15.912Z,3.80
2022-07-30T09:59:54.688Z,2.97
2022-07-30T10:02:29.396Z,2.92
2022-07-30T10:05:13.923Z,3.05
2022-07-30T10:07:49.162Z,3.30
2022-07-30T10:10:20.950Z,3.35
2022-07-30T10:12:50.060Z,3.63
2022-07-30T10:15:19.865Z,4.75
2022-07-30T10:17:48.735Z,3.20
2022-07-30T10:20:16.630Z,3.05
2022-07-30T10:22:45.036Z,3.15
2022-07-30T10:25:20.859Z,3.38
2022-07-30T10:27:51.019Z,4.10
2022-07-30T10:30:27.921Z,2.90
2022-07-30T10:32:57.663Z,3.42
2022-07-30T10:35:34.234Z,3.28
2022-07-30T10:38:06.879Z,3.28
2022-07-30T10:40:39.624Z,3.60
2022-07-30T10:43:16.048Z,3.58
2022-07-30T10:45:58.199Z,3.10
2022-07-30T10:48:33.926Z,3.30
2022-07-30T10:51:01.436Z,3.53
2022-07-30T10:53:56.945Z,3.30
2022-07-30T11:09:41.936Z,3.17
2022-07-30T11:12:12.958Z,3.20
2022-07-30T11:14:56.338Z,3.63
2022-07-30T11:17:28.357Z,3.25
2022-07-30T11:20:11.739Z,3.50
2022-07-30T11:22:44.878Z,3.20
2022-07-30T11:25:50.600Z,3.25
2022-07-30T11:28:38.631Z,3.13
2022-07-30T11:31:37.156Z,3.22
2022-07-30T11:34:30.924Z,3.28
2022-07-30T11:37:18.891Z,2.85
2022-07-30T11:40:04.586Z,3.33
2022-07-30T11:42:34.801Z,3.50
2022-07-30T11:45:27.445Z,3.55
2022-07-30T11:48:06.235Z,3.20
2022-07-30T11:50:42.727Z,3.00
2022-07-30T11:53:27.375Z,3.50
2022-07-30T11:56:03.097Z,3.60
2022-07-30T11:58:42.200Z,3.25
2022-07-30T12:01:16.971Z,3.58
2022-07-30T12:03:55.390Z,3.08
2022-07-30T12:06:29.519Z,2.95
2022-07-30T12:09:00.205Z,3.35
2022-07-30T12:11:56.656Z,3.13
2022-07-30T12:14:27.226Z,3.50
2022-07-30T12:17:02.573Z,3.28
2022-07-30T12:19:52.715Z,3.40
2022-07-30T12:22:29.775Z,4.13
2022-07-30T12:24:59.885Z,3.47
2022-07-30T12:27:29.816Z,3.42
2022-07-30T12:29:59.116Z,2.85
2022-07-30T12:32:32.316Z,3.30
2022-07-30T12:35:07.024Z,3.25
2022-07-30T12:37:36.020Z,2.83
2022-07-30T12:40:22.146Z,4.05
2022-07-30T12:42:54.031Z,4.75
2022-07-30T12:45:51.776Z,2.65
2022-07-30T12:48:25.820Z,2.50
2022-07-30T12:51:09.120Z,2.78
2022-07-30T12:53:39.645Z,2.53
2022-07-30T12:56:19.039Z,2.47
2022-07-30T12:58:56.866Z,2.80
2022-07-30T13:04:28.937Z,2.50
2022-07-30T13:07:15.480Z,3.40
2022-07-30T13:09:45.377Z,2.60
2022-07-30T13:12:21.473Z,2.70
2022-07-30T13:14:59.225Z,3.00
2022-07-30T13:17:32.940Z,2.97
2022-07-30T13:20:18.547Z,2.75
2022-07-30T13:23:01.857Z,3.55
2022-07-30T13:25:38.807Z,3.35
2022-07-30T13:28:11.486Z,2.95
2022-07-30T13:30:42.175Z,3.00
2022-07-30T13:33:12.174Z,3.03
2022-07-30T13:35:53.445Z,3.33
2022-07-30T13:38:22.020Z,3.08
2022-07-30T13:40:52.615Z,2.90
2022-07-30T13:43:23.640Z,3.08
2022-07-30T13:45:59.606Z,3.60
2022-07-30T13:48:32.071Z,3.67
2022-07-30T13:51:02.405Z,3.40
2022-07-30T13:53:32.602Z,3.67
2022-07-30T13:56:02.062Z,3.60
2022-07-30T13:58:36.069Z,3.50
2022-07-30T14:01:17.324Z,4.07
2022-07-30T14:03:53.035Z,3.47
2022-07-30T14:06:23.700Z,4.05
2022-07-30T14:08:53.849Z,3.78
2022-07-30T14:11:34.545Z,3.15
2022-07-30T14:14:03.749Z,3.80
2022-07-30T14:16:45.241Z,3.95
2022-07-30T14:19:23.379Z,4.22
2022-07-30T14:21:56.565Z,3.90
2022-07-30T14:24:25.810Z,3.58
2022-07-30T14:26:58.136Z,3.30
2022-07-30T14:29:29.660Z,3.65
2022-07-30T14:32:04.952Z,3.30
2022-07-30T14:34:49.572Z,3.33
2022-07-30T14:37:21.555Z,3.45
2022-07-30T14:39:50.821Z,3.20
2022-07-30T14:42:24.251Z,3.58
2022-07-30T14:44:56.794Z,3.78
2022-07-30T14:47:30.306Z,3.40
2022-07-30T14:49:59.171Z,3.38
2022-07-30T14:52:32.280Z,3.63
2022-07-30T14:55:02.216Z,3.35
2022-07-30T14:57:38.980Z,3.80
2022-07-30T15:00:29.690Z,3.60
2022-07-30T15:03:02.955Z,3.60
2022-07-30T15:05:37.641Z,3.67
2022-07-30T15:08:08.646Z,3.40
2022-07-30T15:10:37.411Z,3.67
2022-07-30T15:13:16.075Z,2.90
2022-07-30T15:15:46.034Z,3.10
2022-07-30T15:18:17.836Z,3.28
2022-07-30T15:20:48.340Z,3.03
2022-07-30T15:23:18.865Z,3.00
2022-07-30T15:26:01.212Z,2.95
2022-07-30T15:28:30.602Z,3.30
2022-07-30T15:30:59.502Z,3.17
2022-07-30T15:33:31.165Z,3.42
2022-07-30T15:36:06.326Z,2.95
2022-07-30T15:38:39.696Z,2.80
2022-07-30T15:41:17.810Z,3.65
2022-07-30T15:43:48.886Z,2.72
2022-07-30T15:46:20.185Z,2.92
2022-07-30T15:48:50.405Z,2.53
2022-07-30T15:51:20.874Z,2.30
2022-07-30T15:53:51.620Z,2.20
2022-07-30T15:56:22.190Z,2.25
2022-07-30T15:58:56.915Z,3.33
2022-07-30T16:01:28.958Z,2.28
2022-07-30T16:04:05.225Z,1.95
2022-07-30T16:06:36.363Z,2.83
2022-07-30T16:09:09.571Z,2.00
2022-07-30T16:11:41.815Z,2.08
2022-07-30T16:14:19.355Z,1.92
2022-07-30T16:16:47.870Z,4.00
2022-07-30T16:22:48.033Z,2.15
2022-07-30T16:25:17.579Z,2.33
2022-07-30T16:27:47.323Z,2.22
2022-07-30T16:30:27.540Z,2.30
2022-07-30T16:33:03.681Z,2.83
2022-07-30T16:38:18.376Z,2.00
2022-07-30T16:40:51.610Z,2.05
2022-07-30T16:43:20.752Z,1.90
2022-07-30T16:45:49.443Z,2.05
2022-07-30T16:48:20.453Z,1.65
2022-07-30T16:50:51.220Z,2.10
2022-07-30T16:53:28.647Z,2.00
2022-07-30T16:56:02.639Z,1.90
2022-07-30T16:58:31.649Z,2.28
2022-07-30T17:01:02.824Z,2.40
2022-07-30T17:03:33.393Z,2.97
2022-07-30T17:06:03.097Z,2.10
2022-07-30T17:08:32.403Z,2.50
2022-07-30T17:11:11.693Z,2.00
2022-07-30T17:14:00.613Z,2.90
2022-07-30T17:16:30.163Z,2.17
2022-07-30T17:19:00.263Z,2.05
2022-07-30T17:21:46.692Z,2.08
2022-07-30T17:24:28.882Z,2.47
2022-07-30T17:27:09.626Z,2.03
2022-07-30T17:29:50.389Z,2.22
2022-07-30T17:32:30.874Z,2.38
2022-07-30T17:35:13.802Z,2.25
2022-07-30T17:37:46.197Z,3.47
2022-07-30T17:40:28.621Z,2.20
2022-07-30T17:43:07.356Z,2.50
2022-07-30T17:45:46.868Z,3.95
2022-07-30T17:48:23.782Z,2.17
2022-07-30T17:50:54.797Z,2.20
2022-07-30T17:53:37.737Z,2.67
2022-07-30T17:56:09.933Z,1.80
2022-07-30T17:58:58.123Z,3.50
2022-07-30T18:01:34.935Z,2.47
2022-07-30T18:04:05.034Z,2.00
2022-07-30T18:06:36.425Z,3.67
2022-07-30T18:09:06.836Z,2.17
2022-07-30T18:11:36.880Z,1.70
2022-07-30T18:14:13.008Z,1.80
2022-07-30T18:16:43.620Z,2.10
2022-07-30T18:19:27.169Z,2.38
2022-07-30T18:21:58.898Z,1.92
2022-07-30T18:24:34.503Z,1.75
2022-07-30T18:27:17.984Z,1.90
2022-07-30T18:29:45.678Z,2.20
2022-07-30T18:32:16.054Z,1.90
2022-07-30T18:34:46.009Z,1.95
2022-07-30T18:37:13.873Z,2.20
2022-07-30T18:39:42.716Z,3.15
2022-07-30T18:42:17.818Z,2.85
2022-07-30T18:44:47.932Z,2.50
2022-07-30T18:47:23.316Z,2.30
2022-07-30T18:49:58.183Z,2.28
2022-07-30T18:52:29.845Z,2.20
2022-07-30T18:54:59.691Z,2.30
2022-07-30T18:57:29.797Z,2.28
2022-07-30T19:00:02.432Z,3.78
2022-07-30T19:02:31.375Z,2.10
2022-07-30T19:05:14.344Z,1.98
2022-07-30T19:07:55.675Z,2.17
2022-07-30T19:10:29.514Z,2.10
2022-07-30T19:13:00.515Z,2.80
2022-07-30T19:15:43.473Z,2.55
2022-07-30T19:18:17.691Z,2.15
2022-07-30T19:20:46.588Z,2.13
2022-07-30T19:23:28.874Z,2.83
2022-07-30T19:25:58.114Z,3.65
2022-07-30T19:28:29.029Z,2.53
2022-07-30T19:31:02.884Z,2.97
2022-07-30T19:33:32.889Z,2.08
2022-07-30T19:36:04.529Z,1.85
2022-07-30T19:38:35.743Z,2.30
2022-07-30T19:41:05.710Z,2.00
2022-07-30T19:46:17.224Z,2.60
2022-07-30T19:48:50.598Z,2.40
2022-07-30T19:51:21.100Z,2.17
2022-07-30T19:54:03.219Z,2.00
2022-07-30T19:56:38.036Z,2.10
2022-07-30T19:59:14.955Z,3.03
2022-07-30T20:01:44.463Z,2.00
2022-07-30T20:04:17.978Z,2.10
2022-07-30T20:06:53.034Z,2.75
2022-07-30T20:09:29.710Z,2.25
2022-07-30T20:12:02.375Z,2.00
2022-07-30T20:14:33.777Z,2.63
2022-07-30T20:17:04.363Z,2.45
2022-07-30T20:19:48.434Z,3.17
2022-07-30T20:22:18.057Z,1.98
2022-07-30T20:24:56.378Z,2.55
2022-07-30T20:27:36.629Z,4.72
2022-07-30T20:30:12.738Z,2.72
2022-07-30T20:32:47.027Z,3.22
2022-07-30T20:35:19.899Z,2.65
2022-07-30T20:37:55.009Z,2.30
2022-07-30T20:40:35.706Z,2.13
2022-07-30T20:43:05.978Z,3.60
2022-07-30T20:45:40.466Z,2.40
2022-07-30T20:48:16.898Z,3.60
2022-07-30T20:50:49.216Z,2.30
2022-07-30T20:53:22.225Z,2.55
2022-07-30T20:55:54.504Z,2.42
2022-07-30T20:58:27.173Z,2.97
2022-07-30T21:01:02.929Z,3.03
2022-07-30T21:03:43.630Z,3.03
2022-07-30T21:06:21.508Z,2.38
2022-07-30T21:08:55.798Z,4.13
2022-07-30T21:11:26.924Z,2.92
2022-07-30T21:13:55.634Z,2.30
2022-07-30T21:16:34.878Z,2.42
2022-07-30T21:19:12.034Z,2.30
2022-07-30T21:21:48.137Z,2.38
2022-07-30T21:24:27.553Z,2.85
2022-07-30T21:26:55.996Z,2.17
2022-07-30T21:29:30.179Z,2.20
2022-07-30T21:32:03.400Z,3.33
2022-07-30T21:34:40.262Z,2.38
2022-07-30T21:37:13.098Z,2.85
2022-07-30T21:39:46.172Z,3.00
2022-07-30T21:42:17.927Z,2.88
2022-07-30T21:44:53.602Z,3.38
2022-07-30T21:47:22.469Z,4.22
2022-07-30T21:49:54.961Z,2.80
2022-07-30T21:52:26.227Z,2.40
2022-07-30T21:54:56.704Z,2.72
2022-07-30T21:57:39.213Z,2.80
2022-07-30T22:00:16.202Z,2.80
2022-07-30T22:02:53.873Z,3.22
2022-07-30T22:05:38.453Z,2.72
2022-07-30T22:08:12.749Z,2.90
2022-07-30T22:10:43.512Z,6.00
2022-07-30T22:13:22.461Z,4.07
2022-07-30T22:15:53.452Z,4.32
2022-07-30T22:18:25.553Z,3.50
2022-07-30T22:20:55.532Z,3.05
2022-07-30T22:23:24.772Z,3.67
2022-07-30T22:26:02.457Z,3.30
2022-07-30T22:28:34.742Z,3.50
2022-07-30T22:31:15.474Z,3.10
2022-07-30T22:33:49.759Z,3.35
2022-07-30T22:36:25.342Z,2.90
2022-07-30T22:39:00.723Z,3.30
2022-07-30T22:41:37.552Z,2.97
2022-07-30T22:44:12.215Z,3.30
2022-07-30T22:46:56.302Z,3.47
2022-07-30T22:49:46.587Z,4.07
2022-07-30T22:52:26.570Z,2.97
2022-07-30T22:55:09.161Z,3.42
2022-07-30T22:57:40.317Z,3.05
2022-07-30T23:00:28.054Z,3.13
2022-07-30T23:02:59.581Z,3.20
2022-07-30T23:05:27.076Z,3.40
2022-07-30T23:07:58.447Z,3.28
2022-07-30T23:10:31.636Z,4.18
2022-07-30T23:15:48.370Z,3.47
2022-07-30T23:18:26.601Z,3.55
2022-07-30T23:21:00.229Z,3.10
2022-07-30T23:23:38.273Z,5.25
2022-07-30T23:26:14.406Z,3.65
2022-07-30T23:28:43.855Z,2.90
2022-07-30T23:31:12.755Z,3.35
2022-07-30T23:33:43.777Z,3.42
2022-07-30T23:36:13.580Z,3.15
2022-07-30T23:38:43.930Z,3.65
2022-07-30T23:41:29.984Z,3.38
2022-07-30T23:44:06.346Z,3.88
2022-07-30T23:46:38.175Z,3.25
2022-07-30T23:49:08.971Z,3.30
2022-07-30T23:51:38.941Z,5.28
2022-07-30T23:54:15.370Z,3.33
2022-07-30T23:56:43.895Z,3.97
2022-07-30T23:59:15.852Z,3.00
